Rechercher aéroport 
image banner adimage banner adimage banner ad
image banner ad

06CA - Sce Solar I

Situé à Yermo, United States

ICAO - 06CA, IATA -

Données fournies par Airmate  

Information générale

Coordonnées: N34°52'8" W116°49'55"
Élévation : 1942 feet MSL.
Variation magnétique : 14° East
Voir autres Aéroports à California

Données opérationnelles

Special qualification required
Heure actuelle UTC:
Heure actuelle locale:
Météo à : KDAG - Barstow-Daggett ( 4 km )
METAR: KDAG 231350Z AUTO 26008KT 10SM SCT100 23/09 A2994 RMK AO2 SLP110 T02330089 $
TAF: KDAG 231120Z 2312/2412 26012KT P6SM SCT250 FM231900 26008G16KT 6SM FU SCT250 FM240200 26012KT 5SM FU FEW250
Voir NOTAMs / SUP AIP / TFR affectant cet aéroport [VIEW]
Fréquences de communication: [VIEW]

Pistes:

Coordonnées de l'aéroport

Adresse: Yermo United States

Vue satellite de 06CA